createdAt,value
2023-04-10T00:02:15.663Z,101865.20
2023-04-10T00:04:43.847Z,101870.61
2023-04-10T00:07:12.705Z,101870.54
2023-04-10T00:09:40.572Z,101868.63
2023-04-10T00:12:08.492Z,101868.72
2023-04-10T00:14:36.351Z,101871.05
2023-04-10T00:17:04.238Z,101869.63
2023-04-10T00:19:32.150Z,101864.08
2023-04-10T00:22:00.097Z,101867.13
2023-04-10T00:24:28.180Z,101868.84
2023-04-10T00:26:57.585Z,101865.95
2023-04-10T00:29:25.560Z,101868.33
2023-04-10T00:31:53.542Z,101864.16
2023-04-10T00:34:21.406Z,101862.77
2023-04-10T00:36:49.359Z,101856.58
2023-04-10T00:39:17.843Z,101854.23
2023-04-10T00:41:45.724Z,101854.19
2023-04-10T00:44:13.648Z,101854.70
2023-04-10T00:46:42.035Z,101858.89
2023-04-10T00:49:10.915Z,101855.54
2023-04-10T00:51:38.947Z,101851.23
2023-04-10T00:54:07.290Z,101852.87
2023-04-10T00:56:35.290Z,101853.59
2023-04-10T00:59:05.750Z,101853.59
2023-04-10T01:01:35.038Z,101852.98
2023-04-10T01:04:03.468Z,101855.35
2023-04-10T01:06:34.486Z,101856.02
2023-04-10T01:09:10.019Z,101852.27
2023-04-10T01:11:37.875Z,101857.64
2023-04-10T01:14:11.795Z,101855.52
2023-04-10T01:16:55.684Z,101854.03
2023-04-10T01:19:50.872Z,101851.42
2023-04-10T01:22:26.569Z,101855.46
2023-04-10T01:25:38.362Z,101857.33
2023-04-10T01:28:11.266Z,101861.64
2023-04-10T01:30:40.554Z,101864.11
2023-04-10T01:33:13.469Z,101865.23
2023-04-10T01:35:44.265Z,101865.39
2023-04-10T01:38:13.018Z,101861.51
2023-04-10T01:40:42.321Z,101863.41
2023-04-10T01:43:12.686Z,101862.19
2023-04-10T01:45:53.113Z,101860.17
2023-04-10T01:48:21.836Z,101857.44
2023-04-10T01:50:51.827Z,101854.90
2023-04-10T01:53:20.746Z,101855.80
2023-04-10T01:55:50.060Z,101853.83
2023-04-10T01:58:18.616Z,101852.95
2023-04-10T02:00:46.571Z,101855.00
2023-04-10T02:03:15.687Z,101855.63
2023-04-10T02:06:16.209Z,101854.86
2023-04-10T02:08:54.860Z,101859.31
2023-04-10T02:11:48.868Z,101855.92
2023-04-10T02:14:20.582Z,101857.84
2023-04-10T02:16:53.028Z,101861.08
2023-04-10T02:19:23.829Z,101859.69
2023-04-10T02:21:53.724Z,101856.98
2023-04-10T02:24:22.558Z,101855.00
2023-04-10T02:26:52.324Z,101855.48
2023-04-10T02:29:20.452Z,101853.45
2023-04-10T02:31:49.039Z,101854.21
2023-04-10T02:34:16.865Z,101857.61
2023-04-10T02:36:44.779Z,101864.30
2023-04-10T02:39:13.267Z,101867.45
2023-04-10T02:41:48.501Z,101874.20
2023-04-10T02:44:16.537Z,101873.39
2023-04-10T02:46:44.648Z,101873.13
2023-04-10T02:49:13.007Z,101874.00
2023-04-10T02:51:41.043Z,101869.29
2023-04-10T02:54:08.909Z,101866.36
2023-04-10T02:56:37.641Z,101869.02
2023-04-10T02:59:06.099Z,101871.43
2023-04-10T03:01:34.862Z,101871.89
2023-04-10T03:04:04.172Z,101871.10
2023-04-10T03:06:36.395Z,101869.79
2023-04-10T03:09:04.415Z,101869.84
2023-04-10T03:11:34.420Z,101870.63
2023-04-10T03:14:02.293Z,101864.33
2023-04-10T03:16:30.578Z,101867.79
2023-04-10T03:18:58.617Z,101870.92
2023-04-10T03:21:27.523Z,101868.38
2023-04-10T03:23:56.394Z,101867.41
2023-04-10T03:26:24.354Z,101867.79
2023-04-10T03:28:52.761Z,101866.75
2023-04-10T03:31:20.846Z,101868.29
2023-04-10T03:33:49.194Z,101875.21
2023-04-10T03:36:17.395Z,101871.65
2023-04-10T03:38:45.337Z,101869.88
2023-04-10T03:41:13.345Z,101868.25
2023-04-10T03:43:41.631Z,101871.58
2023-04-10T03:46:09.733Z,101874.30
2023-04-10T03:48:42.019Z,101875.92
2023-04-10T03:51:11.061Z,101877.30
2023-04-10T03:53:39.166Z,101877.31
2023-04-10T03:56:10.072Z,101878.00
2023-04-10T03:58:38.184Z,101882.25
2023-04-10T04:01:06.452Z,101879.06
2023-04-10T04:03:38.399Z,101872.54
2023-04-10T04:06:27.318Z,101877.20
2023-04-10T04:09:30.617Z,101874.95
2023-04-10T04:12:18.807Z,101874.55
2023-04-10T04:15:03.790Z,101874.46
2023-04-10T04:17:57.442Z,101876.26
2023-04-10T04:20:36.862Z,101874.62
2023-04-10T04:23:24.944Z,101880.17
2023-04-10T04:26:07.011Z,101878.88
2023-04-10T04:28:49.811Z,101879.48
2023-04-10T04:31:39.907Z,101877.17
2023-04-10T04:34:30.668Z,101881.40
2023-04-10T04:37:33.752Z,101888.63
2023-04-10T04:40:20.365Z,101892.13
2023-04-10T04:43:06.888Z,101884.88
2023-04-10T04:45:57.376Z,101889.81
2023-04-10T04:48:53.388Z,101890.00
2023-04-10T04:51:44.244Z,101886.07
2023-04-10T04:54:32.447Z,101890.58
2023-04-10T04:57:30.101Z,101891.77
2023-04-10T05:00:08.487Z,101893.46
2023-04-10T05:02:57.055Z,101896.35
2023-04-10T05:05:31.573Z,101899.66
2023-04-10T05:08:19.744Z,101904.40
2023-04-10T05:11:02.055Z,101909.48
2023-04-10T05:13:56.328Z,101912.45
2023-04-10T05:16:58.175Z,101916.04
2023-04-10T05:19:43.555Z,101920.64
2023-04-10T05:22:23.235Z,101924.92
2023-04-10T05:25:15.495Z,101929.13
2023-04-10T05:28:01.484Z,101927.33
2023-04-10T05:30:49.717Z,101932.63
2023-04-10T05:33:40.824Z,101933.95
2023-04-10T05:36:40.963Z,101935.67
2023-04-10T05:39:22.411Z,101941.02
2023-04-10T05:42:09.059Z,101938.86
2023-04-10T05:45:09.416Z,101942.20
2023-04-10T05:47:55.318Z,101948.36
2023-04-10T05:50:55.479Z,101949.75
2023-04-10T05:53:37.781Z,101947.48
2023-04-10T05:56:27.319Z,101949.30
2023-04-10T05:59:24.655Z,101948.45
2023-04-10T06:02:13.691Z,101946.71
2023-04-10T06:04:41.766Z,101944.81
2023-04-10T06:07:09.932Z,101946.53
2023-04-10T06:09:37.871Z,101951.52
2023-04-10T06:12:07.026Z,101952.03
2023-04-10T06:14:38.793Z,101954.48
2023-04-10T06:17:07.212Z,101952.67
2023-04-10T06:19:35.350Z,101948.48
2023-04-10T06:22:03.245Z,101949.89
2023-04-10T06:24:31.248Z,101950.89
2023-04-10T06:26:59.810Z,101951.38
2023-04-10T06:29:27.648Z,101952.65
2023-04-10T06:31:55.807Z,101947.65
2023-04-10T06:34:24.531Z,101946.19
2023-04-10T06:37:00.560Z,101945.56
2023-04-10T06:39:28.676Z,101946.35
2023-04-10T06:41:59.166Z,101944.21
2023-04-10T06:44:38.501Z,101946.74
2023-04-10T06:47:06.974Z,101950.60
2023-04-10T06:49:35.008Z,101952.05
2023-04-10T06:52:02.945Z,101945.41
2023-04-10T06:54:30.788Z,101944.79
2023-04-10T06:56:59.114Z,101947.73
2023-04-10T06:59:27.025Z,101943.52
2023-04-10T07:01:55.137Z,101941.92
2023-04-10T07:04:22.941Z,101945.04
2023-04-10T07:06:51.042Z,101946.41
2023-04-10T07:09:18.967Z,101946.90
2023-04-10T07:11:46.945Z,101950.05
2023-04-10T07:14:14.799Z,101952.45
2023-04-10T07:16:42.811Z,101955.25
2023-04-10T07:19:10.844Z,101956.45
2023-04-10T07:21:38.678Z,101957.30
2023-04-10T07:24:06.550Z,101960.16
2023-04-10T07:26:34.511Z,101958.08
2023-04-10T07:29:02.451Z,101964.88
2023-04-10T07:31:30.733Z,101966.04
2023-04-10T07:33:58.703Z,101963.67
2023-04-10T07:36:27.259Z,101959.89
2023-04-10T07:38:56.658Z,101956.11
2023-04-10T07:41:24.781Z,101954.57
2023-04-10T07:43:52.696Z,101952.06
2023-04-10T07:46:20.684Z,101953.70
2023-04-10T07:48:49.759Z,101952.77
2023-04-10T07:51:17.658Z,101953.50
2023-04-10T07:53:45.523Z,101951.32
2023-04-10T07:56:20.794Z,101943.38
2023-04-10T07:58:49.685Z,101942.09
2023-04-10T08:01:17.620Z,101937.72
2023-04-10T08:03:47.099Z,101937.05
2023-04-10T08:06:15.580Z,101936.73
2023-04-10T08:08:43.613Z,101940.97
2023-04-10T08:11:31.072Z,101938.53
2023-04-10T08:14:04.000Z,101937.96
2023-04-10T08:16:34.051Z,101931.70
2023-04-10T08:19:03.022Z,101932.41
2023-04-10T08:21:34.156Z,101931.14
2023-04-10T08:24:03.528Z,101930.11
2023-04-10T08:26:31.861Z,101930.60
2023-04-10T08:29:00.936Z,101924.48
2023-04-10T08:31:29.556Z,101922.89
2023-04-10T08:33:58.725Z,101924.29
2023-04-10T08:36:27.886Z,101922.89
2023-04-10T08:38:55.986Z,101918.09
2023-04-10T08:41:23.924Z,101922.39
2023-04-10T08:43:51.803Z,101924.73
2023-04-10T08:46:20.405Z,101928.34
2023-04-10T08:48:56.923Z,101931.48
2023-04-10T08:51:29.111Z,101929.94
2023-04-10T08:54:05.324Z,101928.16
2023-04-10T08:56:35.252Z,101925.55
2023-04-10T08:59:03.972Z,101927.27
2023-04-10T09:01:31.987Z,101928.21
2023-04-10T09:04:00.447Z,101930.23
2023-04-10T09:06:28.887Z,101928.38
2023-04-10T09:08:56.856Z,101925.00
2023-04-10T09:11:24.773Z,101923.95
2023-04-10T09:13:52.593Z,101924.52
2023-04-10T09:16:29.247Z,101927.11
2023-04-10T09:18:57.606Z,101928.97
2023-04-10T09:21:27.179Z,101929.56
2023-04-10T09:24:01.802Z,101924.13
2023-04-10T09:26:33.942Z,101921.17
2023-04-10T09:29:04.319Z,101918.74
2023-04-10T09:31:34.921Z,101917.86
2023-04-10T09:34:16.971Z,101913.90
2023-04-10T09:36:53.058Z,101910.94
2023-04-10T09:39:21.298Z,101909.75
2023-04-10T09:41:51.561Z,101907.38
2023-04-10T09:44:30.349Z,101906.96
2023-04-10T09:47:08.096Z,101906.73
2023-04-10T09:49:46.705Z,101899.98
2023-04-10T09:52:31.503Z,101896.52
2023-04-10T09:55:09.981Z,101895.52
2023-04-10T09:57:37.808Z,101897.34
2023-04-10T10:00:09.605Z,101893.22
2023-04-10T10:02:41.372Z,101890.21
2023-04-10T10:05:11.268Z,101884.57
2023-04-10T10:07:39.945Z,101876.29
2023-04-10T10:10:11.060Z,101870.52
2023-04-10T10:13:01.864Z,101870.91
2023-04-10T10:15:45.233Z,101869.05
2023-04-10T10:18:37.732Z,101868.85
2023-04-10T10:21:08.402Z,101863.16
2023-04-10T10:23:37.778Z,101865.45
2023-04-10T10:26:06.842Z,101863.22
2023-04-10T10:28:36.699Z,101858.94
2023-04-10T10:31:05.282Z,101855.91
2023-04-10T10:33:37.138Z,101854.16
2023-04-10T10:36:05.743Z,101848.64
2023-04-10T10:38:34.704Z,101852.79
2023-04-10T10:41:38.594Z,101853.41
2023-04-10T10:44:36.580Z,101846.05
2023-04-10T10:47:32.522Z,101842.74
2023-04-10T10:50:02.421Z,101838.66
2023-04-10T10:52:53.047Z,101834.38
2023-04-10T10:55:31.802Z,101826.91
2023-04-10T10:58:01.504Z,101818.63
2023-04-10T11:01:07.860Z,101816.86
2023-04-10T11:03:38.301Z,101815.06
2023-04-10T11:06:12.847Z,101813.42
2023-04-10T11:08:48.767Z,101812.08
2023-04-10T11:11:17.657Z,101812.56
2023-04-10T11:14:05.921Z,101812.80
2023-04-10T11:16:34.947Z,101804.11
2023-04-10T11:19:14.032Z,101805.80
2023-04-10T11:21:59.550Z,101803.42
2023-04-10T11:24:27.865Z,101797.50
2023-04-10T11:26:56.344Z,101792.44
2023-04-10T11:29:27.142Z,101790.80
2023-04-10T11:32:00.210Z,101788.58
2023-04-10T11:34:30.833Z,101788.19
2023-04-10T11:37:02.991Z,101782.73
2023-04-10T11:39:31.591Z,101780.91
2023-04-10T11:41:59.571Z,101778.54
2023-04-10T11:44:41.165Z,101776.57
2023-04-10T11:47:13.032Z,101777.66
2023-04-10T11:49:41.927Z,101773.95
2023-04-10T11:52:09.942Z,101766.80
2023-04-10T11:54:37.804Z,101764.91
2023-04-10T11:57:09.603Z,101762.48
2023-04-10T11:59:37.913Z,101759.91
2023-04-10T12:02:16.821Z,101757.30
2023-04-10T12:04:45.239Z,101759.64
2023-04-10T12:07:13.332Z,101753.71
2023-04-10T12:09:41.626Z,101744.35
2023-04-10T12:12:09.437Z,101747.36
2023-04-10T12:14:39.764Z,101740.08
2023-04-10T12:17:11.134Z,101734.36
2023-04-10T12:19:40.352Z,101731.35
2023-04-10T12:22:12.100Z,101726.53
2023-04-10T12:24:47.573Z,101724.65
2023-04-10T12:27:23.817Z,101719.13
2023-04-10T12:29:54.439Z,101716.39
2023-04-10T12:32:23.623Z,101716.70
2023-04-10T12:34:53.911Z,101711.39
2023-04-10T12:37:21.810Z,101711.11
2023-04-10T12:39:49.966Z,101713.05
2023-04-10T12:42:23.250Z,101709.46
2023-04-10T12:44:55.100Z,101709.81
2023-04-10T12:47:24.720Z,101707.56
2023-04-10T12:50:13.528Z,101705.69
2023-04-10T12:53:01.182Z,101701.63
2023-04-10T12:55:29.176Z,101698.40
2023-04-10T12:57:57.420Z,101691.47
2023-04-10T13:00:26.326Z,101689.81
2023-04-10T13:02:54.702Z,101689.52
2023-04-10T13:05:23.691Z,101682.70
2023-04-10T13:07:52.937Z,101678.80
2023-04-10T13:10:21.993Z,101680.89
2023-04-10T13:12:49.860Z,101675.85
2023-04-10T13:15:17.762Z,101675.67
2023-04-10T13:17:45.640Z,101666.18
2023-04-10T13:20:13.673Z,101665.10
2023-04-10T13:22:41.557Z,101660.23
2023-04-10T13:25:09.646Z,101657.48
2023-04-10T13:27:37.632Z,101654.93
2023-04-10T13:30:06.616Z,101652.23
2023-04-10T13:32:34.495Z,101642.19
2023-04-10T13:35:02.527Z,101637.05
2023-04-10T13:37:30.778Z,101635.15
2023-04-10T13:39:58.797Z,101637.77
2023-04-10T13:42:26.732Z,101635.56
2023-04-10T13:44:54.718Z,101631.23
2023-04-10T13:47:22.525Z,101625.04
2023-04-10T13:49:50.440Z,101617.86
2023-04-10T13:52:18.342Z,101612.93
2023-04-10T13:54:46.301Z,101610.70
2023-04-10T13:57:14.179Z,101606.48
2023-04-10T13:59:42.138Z,101602.41
2023-04-10T14:02:10.087Z,101598.01
2023-04-10T14:04:38.009Z,101596.73
2023-04-10T14:07:06.023Z,101591.88
2023-04-10T14:09:33.931Z,101589.48
2023-04-10T14:12:02.176Z,101581.86
2023-04-10T14:14:30.204Z,101576.41
2023-04-10T14:16:58.420Z,101573.65
2023-04-10T14:19:26.564Z,101570.68
2023-04-10T14:21:54.443Z,101567.31
2023-04-10T14:24:22.254Z,101564.50
2023-04-10T14:26:52.260Z,101559.61
2023-04-10T14:29:25.420Z,101556.11
2023-04-10T14:32:01.353Z,101553.04
2023-04-10T14:34:29.249Z,101550.53
2023-04-10T14:36:57.107Z,101543.67
2023-04-10T14:39:25.422Z,101541.20
2023-04-10T14:41:53.428Z,101537.49
2023-04-10T14:44:21.300Z,101536.92
2023-04-10T14:46:49.233Z,101531.79
2023-04-10T14:49:17.116Z,101526.73
2023-04-10T14:51:46.284Z,101526.45
2023-04-10T14:54:14.255Z,101520.88
2023-04-10T14:56:42.537Z,101514.86
2023-04-10T14:59:11.700Z,101511.59
2023-04-10T15:01:39.743Z,101503.16
2023-04-10T15:04:07.895Z,101502.66
2023-04-10T15:06:36.330Z,101500.84
2023-04-10T15:09:04.223Z,101496.76
2023-04-10T15:11:32.671Z,101498.30
2023-04-10T15:14:02.377Z,101494.11
2023-04-10T15:16:30.675Z,101494.42
2023-04-10T15:18:58.711Z,101489.17
2023-04-10T15:21:27.662Z,101491.48
2023-04-10T15:23:56.093Z,101488.41
2023-04-10T15:26:24.332Z,101489.70
2023-04-10T15:28:52.676Z,101486.11
2023-04-10T15:31:24.184Z,101480.23
2023-04-10T15:33:52.538Z,101477.91
2023-04-10T15:36:20.538Z,101478.09
2023-04-10T15:38:50.205Z,101473.35
2023-04-10T15:41:18.493Z,101471.77
2023-04-10T15:43:46.443Z,101464.58
2023-04-10T15:46:15.974Z,101465.16
2023-04-10T15:48:45.947Z,101464.77
2023-04-10T15:51:14.041Z,101460.99
2023-04-10T15:53:42.166Z,101457.39
2023-04-10T15:56:10.209Z,101454.91
2023-04-10T15:58:38.283Z,101452.16
2023-04-10T16:01:07.085Z,101443.41
2023-04-10T16:03:35.099Z,101442.33
2023-04-10T16:06:03.796Z,101441.59
2023-04-10T16:08:31.760Z,101435.69
2023-04-10T16:10:59.694Z,101429.63
2023-04-10T16:13:27.899Z,101425.42
2023-04-10T16:15:56.077Z,101420.14
2023-04-10T16:18:24.598Z,101410.91
2023-04-10T16:20:52.756Z,101405.92
2023-04-10T16:23:20.901Z,101396.38
2023-04-10T16:25:48.782Z,101398.54
2023-04-10T16:28:17.042Z,101396.11
2023-04-10T16:30:45.173Z,101396.00
2023-04-10T16:33:13.420Z,101389.98
2023-04-10T16:35:41.385Z,101382.69
2023-04-10T16:38:09.336Z,101380.60
2023-04-10T16:40:38.681Z,101377.76
2023-04-10T16:43:06.595Z,101375.17
2023-04-10T16:45:34.965Z,101371.70
2023-04-10T16:48:03.280Z,101374.71
2023-04-10T16:50:36.188Z,101368.18
2023-04-10T16:53:04.288Z,101366.81
2023-04-10T16:55:32.287Z,101363.44
2023-04-10T16:58:00.209Z,101358.91
2023-04-10T17:00:28.909Z,101352.52
2023-04-10T17:02:59.152Z,101348.95
2023-04-10T17:05:35.083Z,101345.33
2023-04-10T17:08:05.163Z,101342.38
2023-04-10T17:10:33.086Z,101340.52
2023-04-10T17:13:01.222Z,101335.89
2023-04-10T17:15:29.544Z,101338.75
2023-04-10T17:17:59.390Z,101339.80
2023-04-10T17:20:28.393Z,101340.03
2023-04-10T17:22:56.239Z,101344.44
2023-04-10T17:25:24.166Z,101343.92
2023-04-10T17:27:52.057Z,101347.74
2023-04-10T17:30:20.254Z,101347.00
2023-04-10T17:32:49.490Z,101344.55
2023-04-10T17:35:17.958Z,101340.20
2023-04-10T17:37:45.918Z,101340.70
2023-04-10T17:40:14.223Z,101339.06
2023-04-10T17:42:42.456Z,101335.35
2023-04-10T17:45:10.986Z,101335.09
2023-04-10T17:47:40.270Z,101337.61
2023-04-10T17:50:08.831Z,101336.06
2023-04-10T17:52:37.060Z,101331.13
2023-04-10T17:55:05.799Z,101330.41
2023-04-10T17:57:33.796Z,101329.64
2023-04-10T18:00:02.615Z,101325.09
2023-04-10T18:02:33.138Z,101321.98
2023-04-10T18:05:04.464Z,101317.23
2023-04-10T18:07:32.474Z,101316.42
2023-04-10T18:10:00.721Z,101317.48
2023-04-10T18:12:29.350Z,101318.16
2023-04-10T18:14:57.629Z,101320.11
2023-04-10T18:17:26.187Z,101319.79
2023-04-10T18:19:56.643Z,101317.84
2023-04-10T18:22:24.775Z,101321.66
2023-04-10T18:24:53.479Z,101322.08
2023-04-10T18:27:21.667Z,101324.23
2023-04-10T18:29:49.797Z,101322.16
2023-04-10T18:32:18.063Z,101320.03
2023-04-10T18:34:46.673Z,101320.06
2023-04-10T18:37:14.842Z,101319.26
2023-04-10T18:39:44.536Z,101316.66
2023-04-10T18:42:12.657Z,101310.63
2023-04-10T18:44:40.930Z,101307.71
2023-04-10T18:47:11.390Z,101303.96
2023-04-10T18:49:39.628Z,101300.42
2023-04-10T18:52:07.690Z,101295.65
2023-04-10T18:54:36.756Z,101294.64
2023-04-10T18:57:05.692Z,101293.95
2023-04-10T18:59:33.873Z,101286.17
2023-04-10T19:02:02.406Z,101281.91
2023-04-10T19:04:30.852Z,101283.44
2023-04-10T19:06:59.383Z,101283.26
2023-04-10T19:09:27.660Z,101281.60
2023-04-10T19:11:56.371Z,101281.65
2023-04-10T19:14:24.683Z,101282.14
2023-04-10T19:16:53.017Z,101280.05
2023-04-10T19:19:21.284Z,101279.86
2023-04-10T19:21:49.216Z,101276.52
2023-04-10T19:24:17.208Z,101279.48
2023-04-10T19:26:45.586Z,101277.66
2023-04-10T19:29:16.281Z,101278.09
2023-04-10T19:31:44.404Z,101275.53
2023-04-10T19:34:13.389Z,101272.80
2023-04-10T19:36:41.883Z,101272.12
2023-04-10T19:39:10.452Z,101271.11
2023-04-10T19:41:44.100Z,101272.88
2023-04-10T19:44:12.401Z,101272.02
2023-04-10T19:46:40.739Z,101268.46
2023-04-10T19:49:11.161Z,101264.30
2023-04-10T19:51:39.551Z,101266.56
2023-04-10T19:54:07.525Z,101264.98
2023-04-10T19:56:37.893Z,101262.48
2023-04-10T19:59:05.873Z,101260.21
2023-04-10T20:01:34.585Z,101258.63
2023-04-10T20:04:02.695Z,101253.64
2023-04-10T20:06:32.023Z,101252.12
2023-04-10T20:08:59.866Z,101252.12
2023-04-10T20:11:30.765Z,101247.05
2023-04-10T20:13:59.071Z,101241.96
2023-04-10T20:16:27.214Z,101239.52
2023-04-10T20:18:56.099Z,101237.72
2023-04-10T20:21:24.252Z,101230.81
2023-04-10T20:23:52.177Z,101233.46
2023-04-10T20:26:20.097Z,101232.46
2023-04-10T20:28:47.996Z,101231.77
2023-04-10T20:31:16.047Z,101228.94
2023-04-10T20:33:44.019Z,101226.02
2023-04-10T20:36:13.073Z,101222.44
2023-04-10T20:38:42.346Z,101217.21
2023-04-10T20:41:10.287Z,101214.38
2023-04-10T20:43:38.293Z,101206.68
2023-04-10T20:46:08.189Z,101205.31
2023-04-10T20:48:37.488Z,101203.34
2023-04-10T20:51:05.773Z,101202.23
2023-04-10T20:53:34.062Z,101196.77
2023-04-10T20:56:03.560Z,101193.17
2023-04-10T20:58:33.739Z,101192.02
2023-04-10T21:01:01.936Z,101187.05
2023-04-10T21:03:30.240Z,101183.63
2023-04-10T21:05:58.290Z,101185.81
2023-04-10T21:08:26.224Z,101183.48
2023-04-10T21:10:54.209Z,101176.18
2023-04-10T21:13:22.317Z,101172.95
2023-04-10T21:15:50.423Z,101169.21
2023-04-10T21:18:18.451Z,101169.11
2023-04-10T21:20:46.444Z,101171.40
2023-04-10T21:23:14.339Z,101168.13
2023-04-10T21:25:50.674Z,101163.30
2023-04-10T21:28:18.604Z,101159.11
2023-04-10T21:30:46.811Z,101155.38
2023-04-10T21:33:14.809Z,101155.74
2023-04-10T21:35:44.248Z,101147.38
2023-04-10T21:38:12.827Z,101140.78
2023-04-10T21:40:40.839Z,101135.15
2023-04-10T21:43:08.776Z,101128.74
2023-04-10T21:45:37.644Z,101124.72
2023-04-10T21:48:05.863Z,101118.98
2023-04-10T21:50:33.841Z,101120.68
2023-04-10T21:53:01.783Z,101118.33
2023-04-10T21:55:29.842Z,101120.02
2023-04-10T21:57:57.978Z,101117.62
2023-04-10T22:00:26.354Z,101113.33
2023-04-10T22:02:54.459Z,101108.19
2023-04-10T22:05:24.509Z,101107.02
2023-04-10T22:07:52.621Z,101102.43
2023-04-10T22:10:20.662Z,101102.19
2023-04-10T22:12:49.146Z,101096.82
2023-04-10T22:15:17.623Z,101096.67
2023-04-10T22:17:45.695Z,101090.45
2023-04-10T22:20:13.731Z,101088.09
2023-04-10T22:22:41.611Z,101083.07
2023-04-10T22:25:09.768Z,101081.88
2023-04-10T22:27:37.906Z,101075.82
2023-04-10T22:30:07.007Z,101072.50
2023-04-10T22:32:34.913Z,101070.20
2023-04-10T22:35:02.845Z,101068.53
2023-04-10T22:37:31.111Z,101071.98
2023-04-10T22:40:00.637Z,101067.17
2023-04-10T22:42:31.229Z,101063.95
2023-04-10T22:44:59.948Z,101063.98
2023-04-10T22:47:27.823Z,101058.56
2023-04-10T22:49:55.823Z,101057.90
2023-04-10T22:52:23.831Z,101052.33
2023-04-10T22:54:51.705Z,101046.86
2023-04-10T22:57:19.598Z,101048.30
2023-04-10T22:59:47.592Z,101039.05
2023-04-10T23:02:15.545Z,101034.27
2023-04-10T23:04:43.624Z,101031.69
2023-04-10T23:07:11.520Z,101026.23
2023-04-10T23:09:39.460Z,101026.45
2023-04-10T23:12:07.722Z,101024.85
2023-04-10T23:14:36.089Z,101018.21
2023-04-10T23:17:03.892Z,101012.14
2023-04-10T23:19:31.729Z,101009.52
2023-04-10T23:21:59.847Z,101003.64
2023-04-10T23:24:27.680Z,100999.79
2023-04-10T23:26:55.580Z,100996.40
2023-04-10T23:29:23.412Z,100991.52
2023-04-10T23:31:51.311Z,100986.39
2023-04-10T23:34:20.945Z,100980.13
2023-04-10T23:36:48.911Z,100975.01
2023-04-10T23:39:16.897Z,100971.91
2023-04-10T23:41:44.956Z,100966.27
2023-04-10T23:44:12.789Z,100965.16
2023-04-10T23:46:40.789Z,100959.46
2023-04-10T23:49:08.786Z,100951.11
2023-04-10T23:51:36.652Z,100950.11
2023-04-10T23:54:05.728Z,100942.00
2023-04-10T23:56:33.922Z,100939.41
2023-04-10T23:59:01.777Z,100937.63
